sensor_id;sensor_type;location;lat;lon;timestamp;temperature;humidity
51793;DHT22;37850;53.178;6.376;2023-04-25T00:01:11;6.90;99.90
51793;DHT22;37850;53.178;6.376;2023-04-25T00:03:38;6.80;99.90
51793;DHT22;37850;53.178;6.376;2023-04-25T00:06:04;6.80;99.90
51793;DHT22;37850;53.178;6.376;2023-04-25T00:08:30;6.80;99.90
51793;DHT22;37850;53.178;6.376;2023-04-25T00:10:57;7.10;99.90
51793;DHT22;37850;53.178;6.376;2023-04-25T00:13:23;7.00;99.90
51793;DHT22;37850;53.178;6.376;2023-04-25T00:15:48;6.80;99.90
51793;DHT22;37850;53.178;6.376;2023-04-25T00:18:15;6.80;99.90
51793;DHT22;37850;53.178;6.376;2023-04-25T00:20:41;6.80;99.90
51793;DHT22;37850;53.178;6.376;2023-04-25T00:23:15;6.80;99.90
51793;DHT22;37850;53.178;6.376;2023-04-25T00:25:47;6.80;99.90
51793;DHT22;37850;53.178;6.376;2023-04-25T00:28:13;6.70;99.90
51793;DHT22;37850;53.178;6.376;2023-04-25T00:30:40;6.80;99.90
51793;DHT22;37850;53.178;6.376;2023-04-25T00:33:07;6.70;99.90
51793;DHT22;37850;53.178;6.376;2023-04-25T00:35:33;6.70;99.90
51793;DHT22;37850;53.178;6.376;2023-04-25T00:37:59;6.70;99.90
51793;DHT22;37850;53.178;6.376;2023-04-25T00:40:24;6.60;99.90
51793;DHT22;37850;53.178;6.376;2023-04-25T00:42:52;6.60;99.90
51793;DHT22;37850;53.178;6.376;2023-04-25T00:45:18;6.60;99.90
51793;DHT22;37850;53.178;6.376;2023-04-25T00:47:45;6.70;99.90
51793;DHT22;37850;53.178;6.376;2023-04-25T00:50:12;6.50;99.90
51793;DHT22;37850;53.178;6.376;2023-04-25T00:52:39;6.50;99.90
51793;DHT22;37850;53.178;6.376;2023-04-25T00:55:06;6.50;99.90
51793;DHT22;37850;53.178;6.376;2023-04-25T00:57:32;6.50;99.90
51793;DHT22;37850;53.178;6.376;2023-04-25T00:59:59;6.50;99.90
51793;DHT22;37850;53.178;6.376;2023-04-25T01:02:26;6.50;99.90
51793;DHT22;37850;53.178;6.376;2023-04-25T01:04:53;7.10;99.90
51793;DHT22;37850;53.178;6.376;2023-04-25T01:07:19;6.40;99.90
51793;DHT22;37850;53.178;6.376;2023-04-25T01:09:46;6.40;99.90
51793;DHT22;37850;53.178;6.376;2023-04-25T01:12:12;6.40;99.90
51793;DHT22;37850;53.178;6.376;2023-04-25T01:14:38;6.40;99.90
51793;DHT22;37850;53.178;6.376;2023-04-25T01:17:04;6.40;99.90
51793;DHT22;37850;53.178;6.376;2023-04-25T01:19:30;6.40;99.90
51793;DHT22;37850;53.178;6.376;2023-04-25T01:21:56;6.70;99.90
51793;DHT22;37850;53.178;6.376;2023-04-25T01:24:22;6.40;99.90
51793;DHT22;37850;53.178;6.376;2023-04-25T01:26:48;6.30;99.90
51793;DHT22;37850;53.178;6.376;2023-04-25T01:29:20;6.30;99.90
51793;DHT22;37850;53.178;6.376;2023-04-25T01:31:47;6.60;99.90
51793;DHT22;37850;53.178;6.376;2023-04-25T01:34:13;6.30;99.90
51793;DHT22;37850;53.178;6.376;2023-04-25T01:36:39;6.50;99.90
51793;DHT22;37850;53.178;6.376;2023-04-25T01:39:06;6.30;99.90
51793;DHT22;37850;53.178;6.376;2023-04-25T01:41:32;6.30;99.90
51793;DHT22;37850;53.178;6.376;2023-04-25T01:44:00;6.20;99.90
51793;DHT22;37850;53.178;6.376;2023-04-25T01:46:27;6.20;99.90
51793;DHT22;37850;53.178;6.376;2023-04-25T01:48:53;6.20;99.90
51793;DHT22;37850;53.178;6.376;2023-04-25T01:51:19;6.20;99.90
51793;DHT22;37850;53.178;6.376;2023-04-25T01:53:46;6.20;99.90
51793;DHT22;37850;53.178;6.376;2023-04-25T01:56:11;6.70;99.90
51793;DHT22;37850;53.178;6.376;2023-04-25T01:58:37;6.20;99.90
51793;DHT22;37850;53.178;6.376;2023-04-25T02:01:03;6.20;99.90
51793;DHT22;37850;53.178;6.376;2023-04-25T02:03:30;6.20;99.90
51793;DHT22;37850;53.178;6.376;2023-04-25T02:05:56;6.10;99.90
51793;DHT22;37850;53.178;6.376;2023-04-25T02:08:22;6.10;99.90
51793;DHT22;37850;53.178;6.376;2023-04-25T02:10:48;6.20;99.90
51793;DHT22;37850;53.178;6.376;2023-04-25T02:13:13;6.10;99.90
51793;DHT22;37850;53.178;6.376;2023-04-25T02:15:39;6.10;99.90
51793;DHT22;37850;53.178;6.376;2023-04-25T02:18:05;6.10;99.90
51793;DHT22;37850;53.178;6.376;2023-04-25T02:20:32;6.10;99.90
51793;DHT22;37850;53.178;6.376;2023-04-25T02:22:58;6.20;99.90
51793;DHT22;37850;53.178;6.376;2023-04-25T02:25:27;6.10;99.90
51793;DHT22;37850;53.178;6.376;2023-04-25T02:27:53;6.10;99.90
51793;DHT22;37850;53.178;6.376;2023-04-25T02:30:19;6.00;99.90
51793;DHT22;37850;53.178;6.376;2023-04-25T02:32:45;6.10;99.90
51793;DHT22;37850;53.178;6.376;2023-04-25T02:35:11;6.40;99.90
51793;DHT22;37850;53.178;6.376;2023-04-25T02:37:38;6.00;99.90
51793;DHT22;37850;53.178;6.376;2023-04-25T02:40:05;6.10;99.90
51793;DHT22;37850;53.178;6.376;2023-04-25T02:42:31;6.10;99.90
51793;DHT22;37850;53.178;6.376;2023-04-25T02:44:57;6.00;99.90
51793;DHT22;37850;53.178;6.376;2023-04-25T02:47:22;6.00;99.90
51793;DHT22;37850;53.178;6.376;2023-04-25T02:49:48;6.00;99.90
51793;DHT22;37850;53.178;6.376;2023-04-25T02:52:14;6.10;99.90
51793;DHT22;37850;53.178;6.376;2023-04-25T02:54:40;6.00;99.90
51793;DHT22;37850;53.178;6.376;2023-04-25T02:57:06;6.00;99.90
51793;DHT22;37850;53.178;6.376;2023-04-25T02:59:32;6.10;99.90
51793;DHT22;37850;53.178;6.376;2023-04-25T03:01:58;6.10;99.90
51793;DHT22;37850;53.178;6.376;2023-04-25T03:04:27;6.00;99.90
51793;DHT22;37850;53.178;6.376;2023-04-25T03:06:53;6.10;99.90
51793;DHT22;37850;53.178;6.376;2023-04-25T03:09:19;5.90;99.90
51793;DHT22;37850;53.178;6.376;2023-04-25T03:11:45;6.70;99.90
51793;DHT22;37850;53.178;6.376;2023-04-25T03:14:12;6.00;99.90
51793;DHT22;37850;53.178;6.376;2023-04-25T03:16:38;5.90;99.90
51793;DHT22;37850;53.178;6.376;2023-04-25T03:19:04;5.90;99.90
51793;DHT22;37850;53.178;6.376;2023-04-25T03:21:31;5.90;99.90
51793;DHT22;37850;53.178;6.376;2023-04-25T03:23:58;5.90;99.90
51793;DHT22;37850;53.178;6.376;2023-04-25T03:26:26;5.80;99.90
51793;DHT22;37850;53.178;6.376;2023-04-25T03:28:52;5.90;99.90
51793;DHT22;37850;53.178;6.376;2023-04-25T03:31:17;5.80;99.90
51793;DHT22;37850;53.178;6.376;2023-04-25T03:33:43;5.80;99.90
51793;DHT22;37850;53.178;6.376;2023-04-25T03:36:09;5.80;99.90
51793;DHT22;37850;53.178;6.376;2023-04-25T03:38:35;5.70;99.90
51793;DHT22;37850;53.178;6.376;2023-04-25T03:41:01;5.70;99.90
51793;DHT22;37850;53.178;6.376;2023-04-25T03:43:27;5.70;99.90
51793;DHT22;37850;53.178;6.376;2023-04-25T03:45:53;5.70;99.90
51793;DHT22;37850;53.178;6.376;2023-04-25T03:48:19;5.60;99.90
51793;DHT22;37850;53.178;6.376;2023-04-25T03:50:50;5.60;99.90
51793;DHT22;37850;53.178;6.376;2023-04-25T03:53:16;5.60;99.90
51793;DHT22;37850;53.178;6.376;2023-04-25T03:55:41;5.90;99.90
51793;DHT22;37850;53.178;6.376;2023-04-25T03:58:07;5.60;99.90
51793;DHT22;37850;53.178;6.376;2023-04-25T04:00:35;6.10;99.90
51793;DHT22;37850;53.178;6.376;2023-04-25T04:03:00;5.50;99.90
51793;DHT22;37850;53.178;6.376;2023-04-25T04:05:26;5.50;99.90
51793;DHT22;37850;53.178;6.376;2023-04-25T04:07:53;5.50;99.90
51793;DHT22;37850;53.178;6.376;2023-04-25T04:10:22;5.50;99.90
51793;DHT22;37850;53.178;6.376;2023-04-25T04:12:47;5.40;99.90
51793;DHT22;37850;53.178;6.376;2023-04-25T04:15:13;5.40;99.90
51793;DHT22;37850;53.178;6.376;2023-04-25T04:17:39;5.40;99.90
51793;DHT22;37850;53.178;6.376;2023-04-25T04:20:06;5.40;99.90
51793;DHT22;37850;53.178;6.376;2023-04-25T04:22:33;5.40;99.90
51793;DHT22;37850;53.178;6.376;2023-04-25T04:24:58;5.40;99.90
51793;DHT22;37850;53.178;6.376;2023-04-25T04:27:24;5.40;99.90
51793;DHT22;37850;53.178;6.376;2023-04-25T04:29:50;5.30;99.90
51793;DHT22;37850;53.178;6.376;2023-04-25T04:32:17;5.40;99.90
51793;DHT22;37850;53.178;6.376;2023-04-25T04:34:43;5.30;99.90
51793;DHT22;37850;53.178;6.376;2023-04-25T04:37:10;5.50;99.90
51793;DHT22;37850;53.178;6.376;2023-04-25T04:39:36;5.30;99.90
51793;DHT22;37850;53.178;6.376;2023-04-25T04:42:02;5.30;99.90
51793;DHT22;37850;53.178;6.376;2023-04-25T04:44:29;5.30;99.90
51793;DHT22;37850;53.178;6.376;2023-04-25T04:46:58;5.30;99.90
51793;DHT22;37850;53.178;6.376;2023-04-25T04:49:24;5.30;99.90
51793;DHT22;37850;53.178;6.376;2023-04-25T04:51:50;5.30;99.90
51793;DHT22;37850;53.178;6.376;2023-04-25T04:54:16;5.30;99.90
51793;DHT22;37850;53.178;6.376;2023-04-25T04:56:42;5.30;99.90
51793;DHT22;37850;53.178;6.376;2023-04-25T04:59:08;5.30;99.90
51793;DHT22;37850;53.178;6.376;2023-04-25T05:01:34;5.30;99.90
51793;DHT22;37850;53.178;6.376;2023-04-25T05:04:01;5.30;99.90
51793;DHT22;37850;53.178;6.376;2023-04-25T05:06:28;5.30;99.90
51793;DHT22;37850;53.178;6.376;2023-04-25T05:08:57;5.30;99.90
51793;DHT22;37850;53.178;6.376;2023-04-25T05:11:24;6.00;99.90
51793;DHT22;37850;53.178;6.376;2023-04-25T05:13:53;5.30;99.90
51793;DHT22;37850;53.178;6.376;2023-04-25T05:16:19;5.30;99.90
51793;DHT22;37850;53.178;6.376;2023-04-25T05:18:46;5.40;99.90
51793;DHT22;37850;53.178;6.376;2023-04-25T05:21:12;5.30;99.90
51793;DHT22;37850;53.178;6.376;2023-04-25T05:23:38;5.50;99.90
51793;DHT22;37850;53.178;6.376;2023-04-25T05:26:04;5.70;99.90
51793;DHT22;37850;53.178;6.376;2023-04-25T05:28:29;5.90;99.90
51793;DHT22;37850;53.178;6.376;2023-04-25T05:30:56;6.10;99.90
51793;DHT22;37850;53.178;6.376;2023-04-25T05:33:21;6.30;99.90
51793;DHT22;37850;53.178;6.376;2023-04-25T05:35:48;7.00;99.90
51793;DHT22;37850;53.178;6.376;2023-04-25T05:38:14;6.60;99.90
51793;DHT22;37850;53.178;6.376;2023-04-25T05:40:40;6.80;99.90
51793;DHT22;37850;53.178;6.376;2023-04-25T05:43:06;6.80;99.90
51793;DHT22;37850;53.178;6.376;2023-04-25T05:45:32;6.80;99.90
51793;DHT22;37850;53.178;6.376;2023-04-25T05:47:58;6.80;99.90
51793;DHT22;37850;53.178;6.376;2023-04-25T05:50:23;6.70;99.90
51793;DHT22;37850;53.178;6.376;2023-04-25T05:52:50;6.60;99.90
51793;DHT22;37850;53.178;6.376;2023-04-25T05:55:16;6.50;99.90
51793;DHT22;37850;53.178;6.376;2023-04-25T05:57:42;6.50;99.90
51793;DHT22;37850;53.178;6.376;2023-04-25T06:00:12;6.60;99.90
51793;DHT22;37850;53.178;6.376;2023-04-25T06:02:38;6.60;99.90
51793;DHT22;37850;53.178;6.376;2023-04-25T06:05:04;6.60;99.90
51793;DHT22;37850;53.178;6.376;2023-04-25T06:07:30;6.60;99.90
51793;DHT22;37850;53.178;6.376;2023-04-25T06:09:56;6.60;99.90
51793;DHT22;37850;53.178;6.376;2023-04-25T06:12:22;6.60;99.90
51793;DHT22;37850;53.178;6.376;2023-04-25T06:14:48;6.60;99.90
51793;DHT22;37850;53.178;6.376;2023-04-25T06:17:13;6.50;99.90
51793;DHT22;37850;53.178;6.376;2023-04-25T06:19:42;6.50;99.90
51793;DHT22;37850;53.178;6.376;2023-04-25T06:22:08;6.50;99.90
51793;DHT22;37850;53.178;6.376;2023-04-25T06:24:34;6.50;99.90
51793;DHT22;37850;53.178;6.376;2023-04-25T06:27:00;6.50;99.90
51793;DHT22;37850;53.178;6.376;2023-04-25T06:29:26;7.30;99.90
51793;DHT22;37850;53.178;6.376;2023-04-25T06:31:52;6.90;99.90
51793;DHT22;37850;53.178;6.376;2023-04-25T06:34:18;6.50;99.90
51793;DHT22;37850;53.178;6.376;2023-04-25T06:36:43;6.50;99.90
51793;DHT22;37850;53.178;6.376;2023-04-25T06:39:10;6.50;99.90
51793;DHT22;37850;53.178;6.376;2023-04-25T06:41:36;6.50;99.90
51793;DHT22;37850;53.178;6.376;2023-04-25T06:44:02;6.60;99.90
51793;DHT22;37850;53.178;6.376;2023-04-25T06:46:28;6.70;99.90
51793;DHT22;37850;53.178;6.376;2023-04-25T06:48:54;6.80;99.90
51793;DHT22;37850;53.178;6.376;2023-04-25T06:51:20;6.90;99.90
51793;DHT22;37850;53.178;6.376;2023-04-25T06:53:46;7.10;99.90
51793;DHT22;37850;53.178;6.376;2023-04-25T06:56:12;7.90;99.90
51793;DHT22;37850;53.178;6.376;2023-04-25T06:58:37;7.00;99.90
51793;DHT22;37850;53.178;6.376;2023-04-25T07:01:03;7.10;99.90
51793;DHT22;37850;53.178;6.376;2023-04-25T07:03:29;7.20;99.90
51793;DHT22;37850;53.178;6.376;2023-04-25T07:05:54;7.20;99.90
51793;DHT22;37850;53.178;6.376;2023-04-25T07:08:21;7.40;99.90
51793;DHT22;37850;53.178;6.376;2023-04-25T07:10:47;7.50;99.90
51793;DHT22;37850;53.178;6.376;2023-04-25T07:13:15;7.60;99.90
51793;DHT22;37850;53.178;6.376;2023-04-25T07:15:41;7.60;99.90
51793;DHT22;37850;53.178;6.376;2023-04-25T07:18:07;7.70;99.90
51793;DHT22;37850;53.178;6.376;2023-04-25T07:20:33;7.80;99.90
51793;DHT22;37850;53.178;6.376;2023-04-25T07:22:58;7.80;99.90
51793;DHT22;37850;53.178;6.376;2023-04-25T07:25:24;7.80;99.90
51793;DHT22;37850;53.178;6.376;2023-04-25T07:27:50;7.80;99.90
51793;DHT22;37850;53.178;6.376;2023-04-25T07:30:16;7.80;99.90
51793;DHT22;37850;53.178;6.376;2023-04-25T07:32:41;7.70;99.90
51793;DHT22;37850;53.178;6.376;2023-04-25T07:35:08;7.70;99.90
51793;DHT22;37850;53.178;6.376;2023-04-25T07:37:34;7.70;99.90
51793;DHT22;37850;53.178;6.376;2023-04-25T07:40:01;7.60;99.90
51793;DHT22;37850;53.178;6.376;2023-04-25T07:42:29;7.60;99.90
51793;DHT22;37850;53.178;6.376;2023-04-25T07:44:54;7.60;99.90
51793;DHT22;37850;53.178;6.376;2023-04-25T07:47:20;7.50;99.90
51793;DHT22;37850;53.178;6.376;2023-04-25T07:49:46;7.50;99.90
51793;DHT22;37850;53.178;6.376;2023-04-25T07:52:12;7.60;99.90
51793;DHT22;37850;53.178;6.376;2023-04-25T07:54:38;8.00;99.90
51793;DHT22;37850;53.178;6.376;2023-04-25T07:57:04;7.80;99.90
51793;DHT22;37850;53.178;6.376;2023-04-25T07:59:32;7.90;99.90
51793;DHT22;37850;53.178;6.376;2023-04-25T08:01:58;7.60;99.90
51793;DHT22;37850;53.178;6.376;2023-04-25T08:04:24;8.00;99.90
51793;DHT22;37850;53.178;6.376;2023-04-25T08:06:51;8.10;99.90
51793;DHT22;37850;53.178;6.376;2023-04-25T08:09:18;8.20;99.90
51793;DHT22;37850;53.178;6.376;2023-04-25T08:11:43;8.20;99.90
51793;DHT22;37850;53.178;6.376;2023-04-25T08:14:09;8.00;99.90
51793;DHT22;37850;53.178;6.376;2023-04-25T08:16:35;7.70;99.90
51793;DHT22;37850;53.178;6.376;2023-04-25T08:19:01;7.30;99.90
51793;DHT22;37850;53.178;6.376;2023-04-25T08:21:26;7.10;99.90
51793;DHT22;37850;53.178;6.376;2023-04-25T08:23:53;7.10;99.90
51793;DHT22;37850;53.178;6.376;2023-04-25T08:26:18;6.90;99.90
51793;DHT22;37850;53.178;6.376;2023-04-25T08:28:44;6.90;99.90
51793;DHT22;37850;53.178;6.376;2023-04-25T08:31:10;6.90;99.90
51793;DHT22;37850;53.178;6.376;2023-04-25T08:33:36;7.40;99.90
51793;DHT22;37850;53.178;6.376;2023-04-25T08:36:02;7.10;99.90
51793;DHT22;37850;53.178;6.376;2023-04-25T08:38:28;7.10;99.90
51793;DHT22;37850;53.178;6.376;2023-04-25T08:40:54;7.00;99.90
51793;DHT22;37850;53.178;6.376;2023-04-25T08:43:21;7.10;99.90
51793;DHT22;37850;53.178;6.376;2023-04-25T08:45:48;7.00;99.90
51793;DHT22;37850;53.178;6.376;2023-04-25T08:48:17;7.00;99.90
51793;DHT22;37850;53.178;6.376;2023-04-25T08:50:51;7.00;99.90
51793;DHT22;37850;53.178;6.376;2023-04-25T08:53:22;7.00;99.90
51793;DHT22;37850;53.178;6.376;2023-04-25T08:55:50;7.10;99.90
51793;DHT22;37850;53.178;6.376;2023-04-25T08:58:18;7.20;99.90
51793;DHT22;37850;53.178;6.376;2023-04-25T09:00:46;7.40;99.90
51793;DHT22;37850;53.178;6.376;2023-04-25T09:03:13;7.30;99.90
51793;DHT22;37850;53.178;6.376;2023-04-25T09:05:40;7.50;99.90
51793;DHT22;37850;53.178;6.376;2023-04-25T09:08:07;7.60;99.90
51793;DHT22;37850;53.178;6.376;2023-04-25T09:10:33;7.80;99.90
51793;DHT22;37850;53.178;6.376;2023-04-25T09:13:13;7.90;99.90
51793;DHT22;37850;53.178;6.376;2023-04-25T09:15:51;8.10;99.90
51793;DHT22;37850;53.178;6.376;2023-04-25T09:21:06;8.40;99.90
51793;DHT22;37850;53.178;6.376;2023-04-25T09:23:48;8.50;99.90
51793;DHT22;37850;53.178;6.376;2023-04-25T09:26:19;8.60;99.90
51793;DHT22;37850;53.178;6.376;2023-04-25T09:28:46;8.70;99.90
51793;DHT22;37850;53.178;6.376;2023-04-25T09:31:24;8.60;99.90
51793;DHT22;37850;53.178;6.376;2023-04-25T09:34:01;8.50;99.90
51793;DHT22;37850;53.178;6.376;2023-04-25T09:36:27;8.40;99.90
51793;DHT22;37850;53.178;6.376;2023-04-25T09:38:53;8.30;99.90
51793;DHT22;37850;53.178;6.376;2023-04-25T09:41:24;8.30;99.90
51793;DHT22;37850;53.178;6.376;2023-04-25T09:43:50;8.30;99.90
51793;DHT22;37850;53.178;6.376;2023-04-25T09:46:16;8.50;99.90
51793;DHT22;37850;53.178;6.376;2023-04-25T09:48:50;8.50;99.90
51793;DHT22;37850;53.178;6.376;2023-04-25T09:51:16;8.60;99.90
51793;DHT22;37850;53.178;6.376;2023-04-25T09:53:46;8.70;99.90
51793;DHT22;37850;53.178;6.376;2023-04-25T09:56:15;8.80;99.90
51793;DHT22;37850;53.178;6.376;2023-04-25T09:58:41;8.90;99.90
51793;DHT22;37850;53.178;6.376;2023-04-25T10:01:09;8.90;99.90
51793;DHT22;37850;53.178;6.376;2023-04-25T10:03:36;9.00;99.90
51793;DHT22;37850;53.178;6.376;2023-04-25T10:06:12;9.10;99.90
51793;DHT22;37850;53.178;6.376;2023-04-25T10:08:40;9.10;99.90
51793;DHT22;37850;53.178;6.376;2023-04-25T10:11:08;9.20;99.90
51793;DHT22;37850;53.178;6.376;2023-04-25T10:13:35;9.20;99.90
51793;DHT22;37850;53.178;6.376;2023-04-25T10:16:03;9.20;99.90
51793;DHT22;37850;53.178;6.376;2023-04-25T10:18:32;9.20;99.90
51793;DHT22;37850;53.178;6.376;2023-04-25T10:21:00;9.20;99.90
51793;DHT22;37850;53.178;6.376;2023-04-25T10:23:26;9.20;99.90
51793;DHT22;37850;53.178;6.376;2023-04-25T10:25:53;9.20;99.90
51793;DHT22;37850;53.178;6.376;2023-04-25T10:28:20;9.10;99.90
51793;DHT22;37850;53.178;6.376;2023-04-25T10:31:12;9.10;99.90
51793;DHT22;37850;53.178;6.376;2023-04-25T10:33:43;9.00;99.90
51793;DHT22;37850;53.178;6.376;2023-04-25T10:36:13;9.00;99.90
51793;DHT22;37850;53.178;6.376;2023-04-25T10:38:40;9.10;99.90
51793;DHT22;37850;53.178;6.376;2023-04-25T10:41:09;9.20;99.90
51793;DHT22;37850;53.178;6.376;2023-04-25T10:43:49;9.30;99.90
51793;DHT22;37850;53.178;6.376;2023-04-25T10:46:17;9.20;99.90
51793;DHT22;37850;53.178;6.376;2023-04-25T10:48:49;9.20;99.90
51793;DHT22;37850;53.178;6.376;2023-04-25T10:51:29;9.10;99.90
51793;DHT22;37850;53.178;6.376;2023-04-25T10:56:26;9.00;99.90
51793;DHT22;37850;53.178;6.376;2023-04-25T10:58:52;9.00;99.90
51793;DHT22;37850;53.178;6.376;2023-04-25T11:01:36;9.00;99.90
51793;DHT22;37850;53.178;6.376;2023-04-25T11:04:02;9.10;99.90
51793;DHT22;37850;53.178;6.376;2023-04-25T11:06:53;9.10;99.90
51793;DHT22;37850;53.178;6.376;2023-04-25T11:09:24;9.20;99.90
51793;DHT22;37850;53.178;6.376;2023-04-25T11:11:57;9.30;99.90
51793;DHT22;37850;53.178;6.376;2023-04-25T11:14:24;9.30;99.90
51793;DHT22;37850;53.178;6.376;2023-04-25T11:16:57;9.30;99.90
51793;DHT22;37850;53.178;6.376;2023-04-25T11:19:24;9.30;99.90
51793;DHT22;37850;53.178;6.376;2023-04-25T11:21:55;9.40;99.90
51793;DHT22;37850;53.178;6.376;2023-04-25T11:24:29;9.40;99.90
51793;DHT22;37850;53.178;6.376;2023-04-25T11:26:55;9.50;99.90
51793;DHT22;37850;53.178;6.376;2023-04-25T11:29:27;9.50;99.90
51793;DHT22;37850;53.178;6.376;2023-04-25T11:31:54;9.60;99.90
51793;DHT22;37850;53.178;6.376;2023-04-25T11:34:23;9.50;99.90
51793;DHT22;37850;53.178;6.376;2023-04-25T11:36:50;9.40;99.90
51793;DHT22;37850;53.178;6.376;2023-04-25T11:39:21;9.40;99.90
51793;DHT22;37850;53.178;6.376;2023-04-25T11:41:47;9.30;99.90
51793;DHT22;37850;53.178;6.376;2023-04-25T11:44:16;9.30;99.90
51793;DHT22;37850;53.178;6.376;2023-04-25T11:46:43;9.30;99.90
51793;DHT22;37850;53.178;6.376;2023-04-25T11:49:08;9.30;99.90
51793;DHT22;37850;53.178;6.376;2023-04-25T11:51:43;9.30;99.90
51793;DHT22;37850;53.178;6.376;2023-04-25T11:54:10;9.40;99.90
51793;DHT22;37850;53.178;6.376;2023-04-25T11:56:37;9.50;99.90
51793;DHT22;37850;53.178;6.376;2023-04-25T11:59:04;9.60;99.90
51793;DHT22;37850;53.178;6.376;2023-04-25T12:01:32;9.60;99.90
51793;DHT22;37850;53.178;6.376;2023-04-25T12:03:58;9.60;99.90
51793;DHT22;37850;53.178;6.376;2023-04-25T12:06:37;9.60;99.90
51793;DHT22;37850;53.178;6.376;2023-04-25T12:09:08;9.60;99.90
51793;DHT22;37850;53.178;6.376;2023-04-25T12:11:45;9.70;99.90
51793;DHT22;37850;53.178;6.376;2023-04-25T12:14:12;9.70;99.90
51793;DHT22;37850;53.178;6.376;2023-04-25T12:16:45;9.80;99.90
51793;DHT22;37850;53.178;6.376;2023-04-25T12:19:15;9.70;99.90
51793;DHT22;37850;53.178;6.376;2023-04-25T12:21:42;9.70;99.90
51793;DHT22;37850;53.178;6.376;2023-04-25T12:24:13;9.60;99.90
51793;DHT22;37850;53.178;6.376;2023-04-25T12:26:55;9.50;99.90
51793;DHT22;37850;53.178;6.376;2023-04-25T12:29:25;9.40;99.90
51793;DHT22;37850;53.178;6.376;2023-04-25T12:31:52;9.40;99.90
51793;DHT22;37850;53.178;6.376;2023-04-25T12:34:19;9.40;99.90
51793;DHT22;37850;53.178;6.376;2023-04-25T12:36:45;9.40;99.90
51793;DHT22;37850;53.178;6.376;2023-04-25T12:39:21;9.40;99.90
51793;DHT22;37850;53.178;6.376;2023-04-25T12:41:50;9.40;99.90
51793;DHT22;37850;53.178;6.376;2023-04-25T12:44:19;9.40;99.90
51793;DHT22;37850;53.178;6.376;2023-04-25T12:46:45;9.30;99.90
51793;DHT22;37850;53.178;6.376;2023-04-25T12:49:11;9.20;99.90
51793;DHT22;37850;53.178;6.376;2023-04-25T12:51:37;9.10;99.90
51793;DHT22;37850;53.178;6.376;2023-04-25T12:54:04;9.20;99.90
51793;DHT22;37850;53.178;6.376;2023-04-25T12:56:30;9.30;99.90
51793;DHT22;37850;53.178;6.376;2023-04-25T12:58:56;9.30;99.90
51793;DHT22;37850;53.178;6.376;2023-04-25T13:01:23;9.30;99.90
51793;DHT22;37850;53.178;6.376;2023-04-25T13:03:49;9.20;99.90
51793;DHT22;37850;53.178;6.376;2023-04-25T13:06:16;9.20;99.90
51793;DHT22;37850;53.178;6.376;2023-04-25T13:08:42;9.20;99.90
51793;DHT22;37850;53.178;6.376;2023-04-25T13:11:08;9.30;99.90
51793;DHT22;37850;53.178;6.376;2023-04-25T13:13:34;9.30;99.90
51793;DHT22;37850;53.178;6.376;2023-04-25T13:16:04;9.50;99.90
51793;DHT22;37850;53.178;6.376;2023-04-25T13:18:30;9.50;99.90
51793;DHT22;37850;53.178;6.376;2023-04-25T13:20:57;9.50;99.90
51793;DHT22;37850;53.178;6.376;2023-04-25T13:23:24;9.50;99.90
51793;DHT22;37850;53.178;6.376;2023-04-25T13:25:51;9.40;99.90
51793;DHT22;37850;53.178;6.376;2023-04-25T13:28:17;9.40;99.90
51793;DHT22;37850;53.178;6.376;2023-04-25T13:30:43;9.30;99.90
51793;DHT22;37850;53.178;6.376;2023-04-25T13:33:09;9.20;99.90
51793;DHT22;37850;53.178;6.376;2023-04-25T13:35:36;9.20;99.90
51793;DHT22;37850;53.178;6.376;2023-04-25T13:38:03;9.10;99.90
51793;DHT22;37850;53.178;6.376;2023-04-25T13:40:29;9.10;99.90
51793;DHT22;37850;53.178;6.376;2023-04-25T13:42:57;9.10;99.90
51793;DHT22;37850;53.178;6.376;2023-04-25T13:45:23;9.00;99.90
51793;DHT22;37850;53.178;6.376;2023-04-25T13:47:49;9.10;99.90
51793;DHT22;37850;53.178;6.376;2023-04-25T13:50:15;9.00;99.90
51793;DHT22;37850;53.178;6.376;2023-04-25T13:52:41;9.00;99.90
51793;DHT22;37850;53.178;6.376;2023-04-25T13:55:08;9.10;99.90
51793;DHT22;37850;53.178;6.376;2023-04-25T13:57:35;9.10;99.90
51793;DHT22;37850;53.178;6.376;2023-04-25T14:00:02;9.20;99.90
51793;DHT22;37850;53.178;6.376;2023-04-25T14:02:34;9.20;99.90
51793;DHT22;37850;53.178;6.376;2023-04-25T14:05:01;9.20;99.90
51793;DHT22;37850;53.178;6.376;2023-04-25T14:07:27;9.20;99.90
51793;DHT22;37850;53.178;6.376;2023-04-25T14:09:52;9.30;99.90
51793;DHT22;37850;53.178;6.376;2023-04-25T14:12:18;9.20;99.90
51793;DHT22;37850;53.178;6.376;2023-04-25T14:14:44;9.30;99.90
51793;DHT22;37850;53.178;6.376;2023-04-25T14:17:10;9.20;99.90
51793;DHT22;37850;53.178;6.376;2023-04-25T14:19:36;9.20;99.90
51793;DHT22;37850;53.178;6.376;2023-04-25T14:22:04;9.10;99.90
51793;DHT22;37850;53.178;6.376;2023-04-25T14:24:29;9.10;99.90
51793;DHT22;37850;53.178;6.376;2023-04-25T14:26:56;9.10;99.90
51793;DHT22;37850;53.178;6.376;2023-04-25T14:29:22;9.10;99.90
51793;DHT22;37850;53.178;6.376;2023-04-25T14:31:47;9.10;99.90
51793;DHT22;37850;53.178;6.376;2023-04-25T14:34:13;9.10;99.90
51793;DHT22;37850;53.178;6.376;2023-04-25T14:36:39;9.00;99.90
51793;DHT22;37850;53.178;6.376;2023-04-25T14:39:05;9.00;99.90
51793;DHT22;37850;53.178;6.376;2023-04-25T14:41:31;8.90;99.90
51793;DHT22;37850;53.178;6.376;2023-04-25T14:43:57;8.90;99.90
51793;DHT22;37850;53.178;6.376;2023-04-25T14:46:23;8.90;99.90
51793;DHT22;37850;53.178;6.376;2023-04-25T14:48:49;8.90;99.90
51793;DHT22;37850;53.178;6.376;2023-04-25T14:51:15;8.90;99.90
51793;DHT22;37850;53.178;6.376;2023-04-25T14:53:41;8.90;99.90
51793;DHT22;37850;53.178;6.376;2023-04-25T14:56:07;8.80;99.90
51793;DHT22;37850;53.178;6.376;2023-04-25T14:58:34;8.80;99.90
51793;DHT22;37850;53.178;6.376;2023-04-25T15:01:00;8.70;99.90
51793;DHT22;37850;53.178;6.376;2023-04-25T15:03:26;8.70;99.90
51793;DHT22;37850;53.178;6.376;2023-04-25T15:05:54;8.80;99.90
51793;DHT22;37850;53.178;6.376;2023-04-25T15:08:21;8.90;99.90
51793;DHT22;37850;53.178;6.376;2023-04-25T15:10:47;9.00;99.90
51793;DHT22;37850;53.178;6.376;2023-04-25T15:13:13;9.00;99.90
51793;DHT22;37850;53.178;6.376;2023-04-25T15:15:39;9.10;99.90
51793;DHT22;37850;53.178;6.376;2023-04-25T15:18:05;9.20;99.90
51793;DHT22;37850;53.178;6.376;2023-04-25T15:20:31;9.20;99.90
51793;DHT22;37850;53.178;6.376;2023-04-25T15:22:57;9.20;99.90
51793;DHT22;37850;53.178;6.376;2023-04-25T15:25:23;9.10;99.90
51793;DHT22;37850;53.178;6.376;2023-04-25T15:27:49;9.20;99.90
51793;DHT22;37850;53.178;6.376;2023-04-25T15:30:17;9.20;99.90
51793;DHT22;37850;53.178;6.376;2023-04-25T15:32:45;9.30;99.90
51793;DHT22;37850;53.178;6.376;2023-04-25T15:35:12;9.30;99.90
51793;DHT22;37850;53.178;6.376;2023-04-25T15:37:38;9.20;99.90
51793;DHT22;37850;53.178;6.376;2023-04-25T15:40:07;9.20;99.90
51793;DHT22;37850;53.178;6.376;2023-04-25T15:42:40;9.20;99.90
51793;DHT22;37850;53.178;6.376;2023-04-25T15:45:08;9.10;99.90
51793;DHT22;37850;53.178;6.376;2023-04-25T15:47:35;9.20;99.90
51793;DHT22;37850;53.178;6.376;2023-04-25T15:50:03;9.10;99.90